Rize — 9HA2781 — position and weather

sailwx.info

Track history (hours):
 
Tides and Currents Weather Stations Pressure Air Temp Water Temp Dewpoint Dewpoint Depression Visibility Wind Speed Wind Dir Waves Ship Positions

Rize

Last reported at 2014-Dec-17 23:33 UTC. Time now 2014-Dec-19 15:46 UTC.
Position N 55°39' E 015°33'.

Length 229 m; draft 7 m.

Type: Cargo ship. MMSI: 215677000.

Date/timePositionNaut miles runAvg speedWind from/ knotsBaromVisibWave heightAir tempDewpointWater temp
2014-Dec-17 23:33N 55°39' E 015°33'1111.4
2014-Dec-17 22:33N 55°34' E 015°15'1111.4
2014-Dec-17 21:33N 55°29' E 014°57'1212.2
2014-Dec-17 20:33N 55°24' E 014°38'1211.6
2014-Dec-17 19:33N 55°14' E 014°25'1010.5
2014-Dec-17 18:33N 55°09' E 014°09'2812.1
2014-Dec-17 16:17N 55°12' E 013°21'811.3
2014-Dec-17 15:33N 55°12' E 013°07'1111.2
2014-Dec-17 14:33N 55°15' E 012°48'9 8.6
2014-Dec-17 13:33N 55°22' E 012°39'9 9.2
2014-Dec-17 12:33N 55°31' E 012°44'9 9.0
2014-Dec-17 11:33N 55°38' E 012°54'1313.0
2014-Dec-17 10:33N 55°50' E 012°46'1414.4
2014-Dec-17 09:34N 56°03' E 012°38'8 8.5
2014-Dec-17 08:34N 56°09' E 012°27'5 5.5
2014-Dec-17 07:33N 56°12' E 012°18'23 7.3
2014-Dec-17 04:20N 56°32' E 011°57'911.7
2014-Dec-17 03:33N 56°41' E 011°54'1312.3
2014-Dec-17 02:29N 56°54' E 011°47'1112.4
2014-Dec-17 01:33N 57°04' E 011°39'1211.8
2014-Dec-17 00:34N 57°15' E 011°32'1212.2
2014-Dec-16 23:33N 57°27' E 011°24'1211.8
2014-Dec-16 22:33N 57°35' E 011°09'1212.0
2014-Dec-16 21:33N 57°43' E 010°52'1211.8
2014-Dec-16 20:33N 57°49' E 010°33'5911.6
2014-Dec-16 15:30N 57°28' E 008°51'1612.1
2014-Dec-16 14:09N 57°20' E 008°24'102 9.6
2014-Dec-16 03:31N 55°47' E 007°05'9 8.8
2014-Dec-16 02:32N 55°38' E 007°05'11 7.8
2014-Dec-16 01:10N 55°28' E 007°11'6 9.4
2014-Dec-16 00:30N 55°26' E 007°21'8 8.1
2014-Dec-15 23:34N 55°23' E 007°33'9 9.4
2014-Dec-15 22:34N 55°21' E 007°50'1010.0
2014-Dec-15 21:34N 55°23' E 008°07'1110.9
2014-Dec-15 20:33N 55°29' E 008°23'3 3.0
2014-Dec-15 19:33N 55°27' E 008°27'0 0.0
2014-Dec-15 18:33N 55°27' E 008°27'0 0.0
2014-Dec-15 17:30N 55°27' E 008°27'0 0.0
2014-Dec-15 16:33N 55°27' E 008°27'0 0.0
2014-Dec-15 15:33N 55°27' E 008°27'0 0.0
2014-Dec-15 14:24N 55°27' E 008°27'0 0.0
2014-Dec-15 13:33N 55°27' E 008°27'0 0.0
2014-Dec-15 12:33N 55°27' E 008°27'0 0.0
2014-Dec-15 11:33N 55°27' E 008°27'0 0.0
2014-Dec-15 10:33N 55°27' E 008°27'0 0.0
2014-Dec-15 09:30N 55°27' E 008°27'0 0.0
2014-Dec-15 08:30N 55°27' E 008°27'0 0.0
2014-Dec-15 07:33N 55°27' E 008°27'0 0.0
2014-Dec-15 06:27N 55°27' E 008°27'0 0.0
2014-Dec-15 05:30N 55°27' E 008°27'0 0.0
2014-Dec-15 04:33N 55°27' E 008°27'0 0.0
2014-Dec-15 03:33N 55°27' E 008°27'0 0.0
2014-Dec-15 02:30N 55°27' E 008°27'0 0.0
2014-Dec-15 01:30N 55°27' E 008°27'0 0.0
2014-Dec-15 00:33N 55°27' E 008°27'0 0.0
2014-Dec-14 23:33N 55°27' E 008°27'0 0.0
2014-Dec-14 22:30N 55°27' E 008°27'0 0.0
2014-Dec-14 21:30N 55°27' E 008°27'0 0.0
2014-Dec-14 20:33N 55°27' E 008°27'0 0.0
2014-Dec-14 19:30N 55°27' E 008°27'0 0.0
2014-Dec-14 18:33N 55°27' E 008°27'0 0.0
2014-Dec-14 17:33N 55°27' E 008°27'0 0.0
2014-Dec-14 16:33N 55°27' E 008°27'0 0.0
2014-Dec-14 15:33N 55°27' E 008°27'0 0.0
2014-Dec-14 14:30N 55°27' E 008°27'0 0.0
2014-Dec-14 13:33N 55°27' E 008°27'0 0.0
2014-Dec-14 12:33N 55°27' E 008°27'0 0.0
2014-Dec-14 11:27N 55°27' E 008°27'0 0.0
2014-Dec-14 10:33N 55°27' E 008°27'0 0.0
2014-Dec-14 09:30N 55°27' E 008°27'0 0.0
2014-Dec-14 08:33N 55°27' E 008°27'0 0.0
2014-Dec-14 07:33N 55°27' E 008°27'0 0.0
2014-Dec-14 06:33N 55°27' E 008°27'0 0.0
2014-Dec-14 05:33N 55°27' E 008°27'0 0.0
2014-Dec-14 04:30N 55°27' E 008°27'0 0.0
2014-Dec-14 03:33N 55°27' E 008°27'0 0.0
2014-Dec-14 02:33N 55°27' E 008°27'0 0.0
2014-Dec-14 01:32N 55°27' E 008°27'0 0.0
2014-Dec-14 00:33N 55°27' E 008°27'0 0.0
2014-Dec-13 23:29N 55°27' E 008°27'0 0.0
2014-Dec-13 22:33N 55°27' E 008°27'0 0.0
2014-Dec-13 21:29N 55°27' E 008°27'0 0.0
2014-Dec-13 20:33N 55°27' E 008°27'0 0.0
2014-Dec-13 19:33N 55°27' E 008°27'0 0.0
2014-Dec-13 18:33N 55°27' E 008°27'0 0.0
2014-Dec-13 17:33N 55°27' E 008°27'0 0.0
2014-Dec-13 16:33N 55°27' E 008°27'0 0.0
2014-Dec-13 15:24N 55°27' E 008°27'0 0.0
2014-Dec-13 14:33N 55°27' E 008°27'0 0.0
2014-Dec-13 13:29N 55°27' E 008°27'0 0.0
2014-Dec-13 12:26N 55°27' E 008°27'0 0.0
2014-Dec-13 11:32N 55°27' E 008°27'0 0.0
2014-Dec-13 10:32N 55°27' E 008°27'0 0.0
2014-Dec-13 09:32N 55°27' E 008°27'0 0.0
2014-Dec-13 08:32N 55°27' E 008°27'0 0.0
2014-Dec-13 07:32N 55°27' E 008°27'0 0.0
2014-Dec-13 06:32N 55°27' E 008°27'0 0.0
2014-Dec-13 05:32N 55°27' E 008°27'3 2.8
2014-Dec-13 04:33N 55°29' E 008°23'9 9.2
2014-Dec-13 03:33N 55°24' E 008°09'3 2.8
2014-Dec-13 02:22N 55°24' E 008°04'0 0.0
2014-Dec-13 01:31N 55°24' E 008°04'0 0.0
2014-Dec-13 00:25N 55°24' E 008°04'0 0.0
2014-Dec-12 23:31N 55°24' E 008°04'0 0.0
2014-Dec-12 22:22N 55°24' E 008°04'0 0.0
2014-Dec-12 21:31N 55°24' E 008°04'0 0.3
2014-Dec-12 20:31N 55°24' E 008°03'5 5.0
2014-Dec-12 19:33N 55°22' E 007°55'1010.0
2014-Dec-12 18:33N 55°21' E 007°38'1212.1
2014-Dec-12 17:34N 55°26' E 007°18'1212.4
2014-Dec-12 16:33N 55°35' E 007°04'146 9.1
2014-Dec-12 00:32N 57°42' E 009°18'1110.8
2014-Dec-11 23:32N 57°46' E 009°37'1211.5
2014-Dec-11 22:32N 57°49' E 009°57'1311.7
2014-Dec-11 21:27N 57°49' E 010°21'1111.7
2014-Dec-11 20:33N 57°50' E 010°41'1211.9
2014-Dec-11 19:33N 57°42' E 010°58'1413.6
2014-Dec-11 18:33N 57°33' E 011°17'1313.1
2014-Dec-11 17:33N 57°22' E 011°30'1414.2
2014-Dec-11 16:33N 57°08' E 011°39'1413.6
2014-Dec-11 15:32N 56°56' E 011°48'1313.2
2014-Dec-11 14:33N 56°43' E 011°52'134 2.7
2014-Dec-09 13:28N 54°29' E 011°37'1111.9
2014-Dec-09 12:33N 54°26' E 011°55'1110.6
2014-Dec-09 11:33N 54°29' E 012°13'6910.9
2014-Dec-09 05:16N 55°02' E 013°57'811.9
2014-Dec-09 04:33N 55°07' E 014°09'1312.9
2014-Dec-09 03:33N 55°18' E 014°22'1312.7
2014-Dec-09 02:33N 55°27' E 014°38'1212.3
2014-Dec-09 01:33N 55°32' E 014°58'1312.8
2014-Dec-09 00:33N 55°36' E 015°19'1312.9
2014-Dec-08 23:33N 55°41' E 015°41'  
Track history (hours):
 
Tides and Currents Weather Stations Pressure Air Temp Water Temp Dewpoint Dewpoint Depression Visibility Wind Speed Wind Dir Waves Ship Positions

Rize

Last reported at 2014-Dec-17 23:33 UTC. Time now 2014-Dec-19 15:46 UTC.
Position N 55°39' E 015°33'.

Length 229 m; draft 7 m.

Type: Cargo ship. MMSI: 215677000.

Date/timePositionNaut miles runAvg speedWind from/ knotsBaromVisibWave heightAir tempDewpointWater temp
2014-Dec-17 23:33N 55°39' E 015°33'1111.4
2014-Dec-17 22:33N 55°34' E 015°15'1111.4
2014-Dec-17 21:33N 55°29' E 014°57'1212.2
2014-Dec-17 20:33N 55°24' E 014°38'1211.6
2014-Dec-17 19:33N 55°14' E 014°25'1010.5
2014-Dec-17 18:33N 55°09' E 014°09'2812.1
2014-Dec-17 16:17N 55°12' E 013°21'811.3
2014-Dec-17 15:33N 55°12' E 013°07'1111.2
2014-Dec-17 14:33N 55°15' E 012°48'9 8.6
2014-Dec-17 13:33N 55°22' E 012°39'9 9.2
2014-Dec-17 12:33N 55°31' E 012°44'9 9.0
2014-Dec-17 11:33N 55°38' E 012°54'1313.0
2014-Dec-17 10:33N 55°50' E 012°46'1414.4
2014-Dec-17 09:34N 56°03' E 012°38'8 8.5
2014-Dec-17 08:34N 56°09' E 012°27'5 5.5
2014-Dec-17 07:33N 56°12' E 012°18'23 7.3
2014-Dec-17 04:20N 56°32' E 011°57'911.7
2014-Dec-17 03:33N 56°41' E 011°54'1312.3
2014-Dec-17 02:29N 56°54' E 011°47'1112.4
2014-Dec-17 01:33N 57°04' E 011°39'1211.8
2014-Dec-17 00:34N 57°15' E 011°32'1212.2
2014-Dec-16 23:33N 57°27' E 011°24'1211.8
2014-Dec-16 22:33N 57°35' E 011°09'1212.0
2014-Dec-16 21:33N 57°43' E 010°52'1211.8
2014-Dec-16 20:33N 57°49' E 010°33'5911.6
2014-Dec-16 15:30N 57°28' E 008°51'1612.1
2014-Dec-16 14:09N 57°20' E 008°24'102 9.6
2014-Dec-16 03:31N 55°47' E 007°05'9 8.8
2014-Dec-16 02:32N 55°38' E 007°05'11 7.8
2014-Dec-16 01:10N 55°28' E 007°11'6 9.4
2014-Dec-16 00:30N 55°26' E 007°21'8 8.1
2014-Dec-15 23:34N 55°23' E 007°33'9 9.4
2014-Dec-15 22:34N 55°21' E 007°50'1010.0
2014-Dec-15 21:34N 55°23' E 008°07'1110.9
2014-Dec-15 20:33N 55°29' E 008°23'3 3.0
2014-Dec-15 19:33N 55°27' E 008°27'0 0.0
2014-Dec-15 18:33N 55°27' E 008°27'0 0.0
2014-Dec-15 17:30N 55°27' E 008°27'0 0.0
2014-Dec-15 16:33N 55°27' E 008°27'0 0.0
2014-Dec-15 15:33N 55°27' E 008°27'0 0.0
2014-Dec-15 14:24N 55°27' E 008°27'0 0.0
2014-Dec-15 13:33N 55°27' E 008°27'0 0.0
2014-Dec-15 12:33N 55°27' E 008°27'0 0.0
2014-Dec-15 11:33N 55°27' E 008°27'0 0.0
2014-Dec-15 10:33N 55°27' E 008°27'0 0.0
2014-Dec-15 09:30N 55°27' E 008°27'0 0.0
2014-Dec-15 08:30N 55°27' E 008°27'0 0.0
2014-Dec-15 07:33N 55°27' E 008°27'0 0.0
2014-Dec-15 06:27N 55°27' E 008°27'0 0.0
2014-Dec-15 05:30N 55°27' E 008°27'0 0.0
2014-Dec-15 04:33N 55°27' E 008°27'0 0.0
2014-Dec-15 03:33N 55°27' E 008°27'0 0.0
2014-Dec-15 02:30N 55°27' E 008°27'0 0.0
2014-Dec-15 01:30N 55°27' E 008°27'0 0.0
2014-Dec-15 00:33N 55°27' E 008°27'0 0.0
2014-Dec-14 23:33N 55°27' E 008°27'0 0.0
2014-Dec-14 22:30N 55°27' E 008°27'0 0.0
2014-Dec-14 21:30N 55°27' E 008°27'0 0.0
2014-Dec-14 20:33N 55°27' E 008°27'0 0.0
2014-Dec-14 19:30N 55°27' E 008°27'0 0.0
2014-Dec-14 18:33N 55°27' E 008°27'0 0.0
2014-Dec-14 17:33N 55°27' E 008°27'0 0.0
2014-Dec-14 16:33N 55°27' E 008°27'0 0.0
2014-Dec-14 15:33N 55°27' E 008°27'0 0.0
2014-Dec-14 14:30N 55°27' E 008°27'0 0.0
2014-Dec-14 13:33N 55°27' E 008°27'0 0.0
2014-Dec-14 12:33N 55°27' E 008°27'0 0.0
2014-Dec-14 11:27N 55°27' E 008°27'0 0.0
2014-Dec-14 10:33N 55°27' E 008°27'0 0.0
2014-Dec-14 09:30N 55°27' E 008°27'0 0.0
2014-Dec-14 08:33N 55°27' E 008°27'0 0.0
2014-Dec-14 07:33N 55°27' E 008°27'0 0.0
2014-Dec-14 06:33N 55°27' E 008°27'0 0.0
2014-Dec-14 05:33N 55°27' E 008°27'0 0.0
2014-Dec-14 04:30N 55°27' E 008°27'0 0.0
2014-Dec-14 03:33N 55°27' E 008°27'0 0.0
2014-Dec-14 02:33N 55°27' E 008°27'0 0.0
2014-Dec-14 01:32N 55°27' E 008°27'0 0.0
2014-Dec-14 00:33N 55°27' E 008°27'0 0.0
2014-Dec-13 23:29N 55°27' E 008°27'0 0.0
2014-Dec-13 22:33N 55°27' E 008°27'0 0.0
2014-Dec-13 21:29N 55°27' E 008°27'0 0.0
2014-Dec-13 20:33N 55°27' E 008°27'0 0.0
2014-Dec-13 19:33N 55°27' E 008°27'0 0.0
2014-Dec-13 18:33N 55°27' E 008°27'0 0.0
2014-Dec-13 17:33N 55°27' E 008°27'0 0.0
2014-Dec-13 16:33N 55°27' E 008°27'0 0.0
2014-Dec-13 15:24N 55°27' E 008°27'0 0.0
2014-Dec-13 14:33N 55°27' E 008°27'0 0.0
2014-Dec-13 13:29N 55°27' E 008°27'0 0.0
2014-Dec-13 12:26N 55°27' E 008°27'0 0.0
2014-Dec-13 11:32N 55°27' E 008°27'0 0.0
2014-Dec-13 10:32N 55°27' E 008°27'0 0.0
2014-Dec-13 09:32N 55°27' E 008°27'0 0.0
2014-Dec-13 08:32N 55°27' E 008°27'0 0.0
2014-Dec-13 07:32N 55°27' E 008°27'0 0.0
2014-Dec-13 06:32N 55°27' E 008°27'0 0.0
2014-Dec-13 05:32N 55°27' E 008°27'3 2.8
2014-Dec-13 04:33N 55°29' E 008°23'9 9.2
2014-Dec-13 03:33N 55°24' E 008°09'3 2.8
2014-Dec-13 02:22N 55°24' E 008°04'0 0.0
2014-Dec-13 01:31N 55°24' E 008°04'0 0.0
2014-Dec-13 00:25N 55°24' E 008°04'0 0.0
2014-Dec-12 23:31N 55°24' E 008°04'0 0.0
2014-Dec-12 22:22N 55°24' E 008°04'0 0.0
2014-Dec-12 21:31N 55°24' E 008°04'0 0.3
2014-Dec-12 20:31N 55°24' E 008°03'5 5.0
2014-Dec-12 19:33N 55°22' E 007°55'1010.0
2014-Dec-12 18:33N 55°21' E 007°38'1212.1
2014-Dec-12 17:34N 55°26' E 007°18'1212.4
2014-Dec-12 16:33N 55°35' E 007°04'146 9.1
2014-Dec-12 00:32N 57°42' E 009°18'1110.8
2014-Dec-11 23:32N 57°46' E 009°37'1211.5
2014-Dec-11 22:32N 57°49' E 009°57'1311.7
2014-Dec-11 21:27N 57°49' E 010°21'1111.7
2014-Dec-11 20:33N 57°50' E 010°41'1211.9
2014-Dec-11 19:33N 57°42' E 010°58'1413.6
2014-Dec-11 18:33N 57°33' E 011°17'1313.1
2014-Dec-11 17:33N 57°22' E 011°30'1414.2
2014-Dec-11 16:33N 57°08' E 011°39'1413.6
2014-Dec-11 15:32N 56°56' E 011°48'1313.2
2014-Dec-11 14:33N 56°43' E 011°52'134 2.7
2014-Dec-09 13:28N 54°29' E 011°37'1111.9
2014-Dec-09 12:33N 54°26' E 011°55'1110.6
2014-Dec-09 11:33N 54°29' E 012°13'6910.9
2014-Dec-09 05:16N 55°02' E 013°57'811.9
2014-Dec-09 04:33N 55°07' E 014°09'1312.9
2014-Dec-09 03:33N 55°18' E 014°22'1312.7
2014-Dec-09 02:33N 55°27' E 014°38'1212.3
2014-Dec-09 01:33N 55°32' E 014°58'1312.8
2014-Dec-09 00:33N 55°36' E 015°19'1312.9
2014-Dec-08 23:33N 55°41' E 015°41'  

Dump ship's entire track history